createdAt,value
2022-10-01T00:01:37.541Z,96617.47
2022-10-01T00:07:03.152Z,96615.84
2022-10-01T00:12:23.861Z,96617.94
2022-10-01T00:17:44.580Z,96621.34
2022-10-01T00:23:05.147Z,96622.47
2022-10-01T00:28:26.234Z,96628.09
2022-10-01T00:33:47.147Z,96620.81
2022-10-01T00:39:10.320Z,96621.75
2022-10-01T00:44:38.029Z,96622.06
2022-10-01T00:50:20.079Z,96635.88
2022-10-01T00:55:48.657Z,96633.84
2022-10-01T01:01:10.254Z,96631.38
2022-10-01T01:06:30.981Z,96622.34
2022-10-01T01:12:11.285Z,96616.97
2022-10-01T01:17:50.947Z,96624.78
2022-10-01T01:23:36.678Z,96605.34
2022-10-01T01:29:04.679Z,96603.41
2022-10-01T01:34:30.767Z,96599.44
2022-10-01T01:39:55.270Z,96604.34
2022-10-01T01:45:21.822Z,96604.63
2022-10-01T01:50:49.121Z,96608.00
2022-10-01T01:56:09.841Z,96591.78
2022-10-01T02:01:40.137Z,96584.00
2022-10-01T02:07:28.696Z,96582.63
2022-10-01T02:13:04.296Z,96590.38
2022-10-01T02:18:34.579Z,96580.13
2022-10-01T02:24:01.051Z,96590.78
2022-10-01T02:29:23.938Z,96584.22
2022-10-01T02:34:49.392Z,96590.38
2022-10-01T02:40:15.924Z,96587.25
2022-10-01T02:45:40.394Z,96592.31
2022-10-01T02:51:23.016Z,96577.38
2022-10-01T02:57:02.223Z,96573.97
2022-10-01T03:02:23.914Z,96569.84
2022-10-01T03:07:44.621Z,96565.31
2022-10-01T03:13:06.561Z,96567.25
2022-10-01T03:18:27.299Z,96561.34
2022-10-01T03:23:47.849Z,96560.94
2022-10-01T03:29:08.493Z,96562.53
2022-10-01T03:34:29.188Z,96553.53
2022-10-01T03:39:49.964Z,96553.81
2022-10-01T03:45:10.752Z,96551.66
2022-10-01T03:50:31.757Z,96558.09
2022-10-01T03:55:52.509Z,96538.50
2022-10-01T04:01:13.242Z,96546.03
2022-10-01T04:06:33.818Z,96546.03
2022-10-01T04:11:54.950Z,96539.06
2022-10-01T04:17:15.403Z,96536.28
2022-10-01T04:22:40.414Z,96533.69
2022-10-01T04:28:04.080Z,96530.81
2022-10-01T04:33:24.893Z,96519.34
2022-10-01T04:38:45.954Z,96524.53
2022-10-01T04:44:06.716Z,96521.63
2022-10-01T04:49:27.843Z,96522.22
2022-10-01T04:54:48.621Z,96525.06
2022-10-01T05:00:12.180Z,96523.97
2022-10-01T05:05:35.055Z,96522.31
2022-10-01T05:10:55.735Z,96519.88
2022-10-01T05:16:16.453Z,96523.44
2022-10-01T05:21:37.667Z,96517.25
2022-10-01T05:26:58.643Z,96506.81
2022-10-01T05:32:19.776Z,96504.31
2022-10-01T05:37:40.617Z,96503.38
2022-10-01T05:43:03.151Z,96503.38
2022-10-01T05:48:23.962Z,96507.09
2022-10-01T05:53:50.215Z,96509.09
2022-10-01T05:59:12.089Z,96504.69
2022-10-01T06:04:34.757Z,96512.34
2022-10-01T06:09:57.225Z,96511.63
2022-10-01T06:15:18.718Z,96510.31
2022-10-01T06:20:41.083Z,96519.75
2022-10-01T06:26:05.607Z,96524.03
2022-10-01T06:31:26.610Z,96521.97
2022-10-01T06:36:47.162Z,96524.47
2022-10-01T06:42:07.761Z,96528.88
2022-10-01T06:47:28.621Z,96542.31
2022-10-01T06:52:50.555Z,96534.63
2022-10-01T06:58:21.018Z,96536.13
2022-10-01T07:03:41.957Z,96533.72
2022-10-01T07:09:02.575Z,96532.88
2022-10-01T07:14:23.462Z,96518.56
2022-10-01T07:19:43.982Z,96510.72
2022-10-01T07:25:05.325Z,96504.59
2022-10-01T07:30:26.892Z,96497.97
2022-10-01T07:35:48.360Z,96508.06
2022-10-01T07:41:09.687Z,96508.72
2022-10-01T07:46:34.505Z,96489.88
2022-10-01T07:51:55.829Z,96493.44
2022-10-01T07:57:16.565Z,96485.13
2022-10-01T08:02:37.707Z,96481.34
2022-10-01T08:08:06.790Z,96464.91
2022-10-01T08:13:27.371Z,96447.94
2022-10-01T08:18:47.836Z,96444.84
2022-10-01T08:24:09.245Z,96444.88
2022-10-01T08:29:30.018Z,96441.72
2022-10-01T08:34:56.484Z,96438.97
2022-10-01T08:40:21.672Z,96434.13
2022-10-01T08:45:47.670Z,96423.25
2022-10-01T08:51:15.562Z,96407.28
2022-10-01T08:56:46.311Z,96402.75
2022-10-01T09:02:21.387Z,96393.31
2022-10-01T09:08:01.163Z,96385.16
2022-10-01T09:13:40.489Z,96382.22
2022-10-01T09:19:32.352Z,96373.06
2022-10-01T09:25:25.684Z,96367.00
2022-10-01T09:31:01.417Z,96358.84
2022-10-01T09:37:01.167Z,96351.97
2022-10-01T09:42:26.560Z,96347.03
2022-10-01T09:47:51.459Z,96335.13
2022-10-01T09:53:19.523Z,96336.44
2022-10-01T09:58:42.830Z,96342.63
2022-10-01T10:04:03.711Z,96341.50
2022-10-01T10:09:30.768Z,96339.03
2022-10-01T10:14:51.457Z,96334.59
2022-10-01T10:20:23.400Z,96339.69
2022-10-01T10:25:44.349Z,96338.53
2022-10-01T10:31:11.289Z,96335.25
2022-10-01T10:36:35.874Z,96317.38
2022-10-01T10:41:58.882Z,96321.81
2022-10-01T10:47:21.906Z,96319.34
2022-10-01T10:52:45.728Z,96311.03
2022-10-01T10:58:11.046Z,96306.25
2022-10-01T11:03:33.283Z,96308.69
2022-10-01T11:09:07.401Z,96296.72
2022-10-01T11:14:34.303Z,96300.00
2022-10-01T11:20:04.611Z,96301.81
2022-10-01T11:26:06.071Z,96296.72
2022-10-01T11:31:43.434Z,96299.00
2022-10-01T11:37:35.608Z,96290.38
2022-10-01T11:43:04.171Z,96285.16
2022-10-01T11:48:31.547Z,96285.38
2022-10-01T11:54:04.111Z,96281.13
2022-10-01T11:59:43.399Z,96277.06
2022-10-01T12:05:15.288Z,96264.81
2022-10-01T12:10:44.857Z,96247.31
2022-10-01T12:16:20.017Z,96245.50
2022-10-01T12:21:51.887Z,96250.41
2022-10-01T12:27:31.188Z,96265.31
2022-10-01T12:33:04.985Z,96254.03
2022-10-01T12:38:47.255Z,96235.22
2022-10-01T12:44:38.141Z,96228.03
2022-10-01T12:50:06.296Z,96227.88
2022-10-01T12:55:54.933Z,96236.88
2022-10-01T13:01:41.158Z,96234.63
2022-10-01T13:07:31.683Z,96246.38
2022-10-01T13:13:21.572Z,96254.00
2022-10-01T13:18:51.778Z,96253.66
2022-10-01T13:24:34.152Z,96253.44
2022-10-01T13:30:14.073Z,96252.78
2022-10-01T13:35:39.608Z,96254.88
2022-10-01T13:41:06.900Z,96262.22
2022-10-01T13:46:31.291Z,96263.34
2022-10-01T13:51:53.039Z,96267.09
2022-10-01T13:57:34.743Z,96263.66
2022-10-01T14:03:39.346Z,96262.38
2022-10-01T14:09:15.475Z,96252.75
2022-10-01T14:14:58.590Z,96251.78
2022-10-01T14:20:23.499Z,96246.56
2022-10-01T14:25:50.316Z,96252.41
2022-10-01T14:31:29.518Z,96250.31
2022-10-01T14:36:53.586Z,96245.44
2022-10-01T14:42:18.396Z,96241.03
2022-10-01T14:47:40.342Z,96237.75
2022-10-01T14:53:01.575Z,96239.88
2022-10-01T14:58:35.948Z,96230.06
2022-10-01T15:03:56.686Z,96241.28
2022-10-01T15:09:19.229Z,96239.97
2022-10-01T15:14:41.266Z,96234.91
2022-10-01T15:20:02.742Z,96248.56
2022-10-01T15:25:26.708Z,96244.03
2022-10-01T15:30:47.508Z,96244.69
2022-10-01T15:36:15.518Z,96227.41
2022-10-01T15:41:37.777Z,96240.44
2022-10-01T15:47:20.640Z,96240.75
2022-10-01T15:52:54.265Z,96240.75
2022-10-01T15:58:37.165Z,96233.09
2022-10-01T16:04:04.267Z,96225.44
2022-10-01T16:09:30.808Z,96217.91
2022-10-01T16:15:03.932Z,96220.03
2022-10-01T16:20:39.013Z,96230.31
2022-10-01T16:26:00.007Z,96229.16
2022-10-01T16:31:20.844Z,96227.00
2022-10-01T16:36:41.586Z,96225.84
2022-10-01T16:42:22.800Z,96243.09
2022-10-01T16:47:44.116Z,96250.81
2022-10-01T16:53:05.145Z,96255.34
2022-10-01T16:58:26.086Z,96264.81
2022-10-01T17:03:47.179Z,96259.75
2022-10-01T17:09:08.279Z,96267.44
2022-10-01T17:14:28.901Z,96277.03
2022-10-01T17:19:49.864Z,96276.72
2022-10-01T17:25:19.388Z,96279.19
2022-10-01T17:30:46.575Z,96278.38
2022-10-01T17:36:09.261Z,96289.78
2022-10-01T17:41:29.997Z,96300.00
2022-10-01T17:46:50.472Z,96297.28
2022-10-01T17:52:11.782Z,96311.78
2022-10-01T17:57:32.899Z,96307.06
2022-10-01T18:02:54.034Z,96313.25
2022-10-01T18:08:15.459Z,96306.88
2022-10-01T18:13:37.171Z,96309.94
2022-10-01T18:24:43.457Z,96326.78
2022-10-01T18:30:05.755Z,96335.88
2022-10-01T18:35:34.489Z,96342.03
2022-10-01T18:40:59.870Z,96345.75
2022-10-01T18:46:43.962Z,96352.53
2022-10-01T18:52:34.285Z,96353.72
2022-10-01T18:58:23.288Z,96361.72
2022-10-01T19:04:00.714Z,96355.38
2022-10-01T19:09:43.021Z,96366.00
2022-10-01T19:15:24.779Z,96378.91
2022-10-01T19:20:58.297Z,96372.72
2022-10-01T19:26:35.073Z,96376.16
2022-10-01T19:32:01.697Z,96379.22
2022-10-01T19:37:42.507Z,96375.13
2022-10-01T19:43:24.407Z,96376.44
2022-10-01T19:48:52.566Z,96378.09
2022-10-01T19:54:19.590Z,96384.13
2022-10-01T19:59:41.548Z,96390.78
2022-10-01T20:05:12.654Z,96401.22
2022-10-01T20:10:49.134Z,96397.78
2022-10-01T20:16:30.377Z,96406.66
2022-10-01T20:22:20.016Z,96413.63
2022-10-01T20:28:01.300Z,96421.63
2022-10-01T20:33:34.813Z,96426.56
2022-10-01T20:39:04.636Z,96431.78
2022-10-01T20:44:31.941Z,96442.03
2022-10-01T20:50:09.323Z,96443.16
2022-10-01T20:55:40.949Z,96451.34
2022-10-01T21:01:14.033Z,96443.47
2022-10-01T21:06:39.830Z,96447.09
2022-10-01T21:12:10.385Z,96457.53
2022-10-01T21:17:39.042Z,96469.91
2022-10-01T21:23:33.606Z,96477.91
2022-10-01T21:29:03.588Z,96482.31
2022-10-01T21:35:07.734Z,96499.59
2022-10-01T21:41:07.196Z,96508.69
2022-10-01T21:46:38.551Z,96522.53
2022-10-01T21:52:10.735Z,96530.06
2022-10-01T21:57:50.076Z,96545.91
2022-10-01T22:03:26.260Z,96541.78
2022-10-01T22:09:18.575Z,96554.25
2022-10-01T22:14:41.368Z,96566.53
2022-10-01T22:20:04.718Z,96579.47
2022-10-01T22:25:27.041Z,96595.66
2022-10-01T22:30:51.435Z,96598.03
2022-10-01T22:36:19.700Z,96608.78
2022-10-01T22:41:46.809Z,96618.88
2022-10-01T22:47:49.846Z,96633.56
2022-10-01T22:53:43.307Z,96647.56
2022-10-01T22:59:04.128Z,96653.75
2022-10-01T23:04:30.809Z,96661.31
2022-10-01T23:10:01.526Z,96664.59
2022-10-01T23:15:46.497Z,96670.94
2022-10-01T23:21:32.715Z,96680.78
2022-10-01T23:27:25.399Z,96686.00
2022-10-01T23:33:07.983Z,96690.28
2022-10-01T23:38:46.446Z,96701.56
2022-10-01T23:44:21.959Z,96700.59
2022-10-01T23:49:50.961Z,96712.78
2022-10-01T23:55:51.380Z,96718.41
